sensor_id;sensor_type;location;lat;lon;timestamp;temperature;humidity
51619;DHT22;38518;53.164;5.430;2024-03-02T00:00:07;7.90;1.00
51619;DHT22;38518;53.164;5.430;2024-03-02T00:02:44;8.00;1.00
51619;DHT22;38518;53.164;5.430;2024-03-02T00:05:11;8.00;1.00
51619;DHT22;38518;53.164;5.430;2024-03-02T00:07:41;8.00;1.00
51619;DHT22;38518;53.164;5.430;2024-03-02T00:10:09;8.10;1.00
51619;DHT22;38518;53.164;5.430;2024-03-02T00:12:39;8.10;1.00
51619;DHT22;38518;53.164;5.430;2024-03-02T00:17:53;8.10;1.00
51619;DHT22;38518;53.164;5.430;2024-03-02T00:20:22;8.10;1.00
51619;DHT22;38518;53.164;5.430;2024-03-02T00:22:49;8.10;1.00
51619;DHT22;38518;53.164;5.430;2024-03-02T00:25:15;8.10;1.00
51619;DHT22;38518;53.164;5.430;2024-03-02T00:27:41;8.10;1.00
51619;DHT22;38518;53.164;5.430;2024-03-02T00:32:59;8.10;1.00
51619;DHT22;38518;53.164;5.430;2024-03-02T00:35:24;8.10;1.00
51619;DHT22;38518;53.164;5.430;2024-03-02T00:37:50;8.00;1.00
51619;DHT22;38518;53.164;5.430;2024-03-02T00:40:17;8.00;1.00
51619;DHT22;38518;53.164;5.430;2024-03-02T00:42:42;8.00;1.00
51619;DHT22;38518;53.164;5.430;2024-03-02T00:45:08;8.00;1.00
51619;DHT22;38518;53.164;5.430;2024-03-02T00:47:39;8.00;1.00
51619;DHT22;38518;53.164;5.430;2024-03-02T00:50:05;8.00;1.00
51619;DHT22;38518;53.164;5.430;2024-03-02T00:52:32;8.00;1.00
51619;DHT22;38518;53.164;5.430;2024-03-02T00:54:58;8.00;1.00
51619;DHT22;38518;53.164;5.430;2024-03-02T00:57:24;8.00;1.00
51619;DHT22;38518;53.164;5.430;2024-03-02T00:59:51;8.40;1.00
51619;DHT22;38518;53.164;5.430;2024-03-02T01:02:18;8.00;1.00
51619;DHT22;38518;53.164;5.430;2024-03-02T01:04:45;8.00;1.00
51619;DHT22;38518;53.164;5.430;2024-03-02T01:07:11;8.00;1.00
51619;DHT22;38518;53.164;5.430;2024-03-02T01:09:37;8.90;1.00
51619;DHT22;38518;53.164;5.430;2024-03-02T01:12:03;8.10;1.00
51619;DHT22;38518;53.164;5.430;2024-03-02T01:14:28;8.10;1.00
51619;DHT22;38518;53.164;5.430;2024-03-02T01:16:57;8.10;1.00
51619;DHT22;38518;53.164;5.430;2024-03-02T01:19:23;8.10;1.00
51619;DHT22;38518;53.164;5.430;2024-03-02T01:21:49;8.10;1.00
51619;DHT22;38518;53.164;5.430;2024-03-02T01:24:16;8.10;1.00
51619;DHT22;38518;53.164;5.430;2024-03-02T01:26:42;8.20;1.00
51619;DHT22;38518;53.164;5.430;2024-03-02T01:29:07;8.20;1.00
51619;DHT22;38518;53.164;5.430;2024-03-02T01:31:33;8.20;1.00
51619;DHT22;38518;53.164;5.430;2024-03-02T01:33:59;8.20;1.00
51619;DHT22;38518;53.164;5.430;2024-03-02T01:36:24;8.20;1.00
51619;DHT22;38518;53.164;5.430;2024-03-02T01:38:50;8.20;1.00
51619;DHT22;38518;53.164;5.430;2024-03-02T01:41:16;8.20;1.00
51619;DHT22;38518;53.164;5.430;2024-03-02T01:43:42;8.20;1.00
51619;DHT22;38518;53.164;5.430;2024-03-02T01:46:07;8.20;1.00
51619;DHT22;38518;53.164;5.430;2024-03-02T01:48:34;8.10;1.00
51619;DHT22;38518;53.164;5.430;2024-03-02T01:51:00;8.10;1.00
51619;DHT22;38518;53.164;5.430;2024-03-02T01:53:26;8.10;1.00
51619;DHT22;38518;53.164;5.430;2024-03-02T01:55:53;8.10;1.00
51619;DHT22;38518;53.164;5.430;2024-03-02T01:58:19;8.20;1.00
51619;DHT22;38518;53.164;5.430;2024-03-02T02:00:45;8.70;1.00
51619;DHT22;38518;53.164;5.430;2024-03-02T02:03:10;9.00;1.00
51619;DHT22;38518;53.164;5.430;2024-03-02T02:05:36;8.00;1.00
51619;DHT22;38518;53.164;5.430;2024-03-02T02:08:02;8.00;1.00
51619;DHT22;38518;53.164;5.430;2024-03-02T02:10:28;7.90;1.00
51619;DHT22;38518;53.164;5.430;2024-03-02T02:12:53;7.80;1.00
51619;DHT22;38518;53.164;5.430;2024-03-02T02:17:51;7.60;1.00
51619;DHT22;38518;53.164;5.430;2024-03-02T02:20:17;7.50;1.00
51619;DHT22;38518;53.164;5.430;2024-03-02T02:23:01;7.50;1.00
51619;DHT22;38518;53.164;5.430;2024-03-02T02:25:29;7.50;1.00
51619;DHT22;38518;53.164;5.430;2024-03-02T02:27:55;7.50;1.00
51619;DHT22;38518;53.164;5.430;2024-03-02T02:30:22;7.50;1.00
51619;DHT22;38518;53.164;5.430;2024-03-02T02:32:49;7.50;1.00
51619;DHT22;38518;53.164;5.430;2024-03-02T02:35:14;7.50;1.00
51619;DHT22;38518;53.164;5.430;2024-03-02T02:37:40;7.50;1.00
51619;DHT22;38518;53.164;5.430;2024-03-02T02:40:07;7.40;1.00
51619;DHT22;38518;53.164;5.430;2024-03-02T02:42:33;7.40;1.00
51619;DHT22;38518;53.164;5.430;2024-03-02T02:44:58;7.50;1.00
51619;DHT22;38518;53.164;5.430;2024-03-02T02:47:25;7.30;1.00
51619;DHT22;38518;53.164;5.430;2024-03-02T02:49:51;7.30;1.00
51619;DHT22;38518;53.164;5.430;2024-03-02T02:52:17;7.30;1.00
51619;DHT22;38518;53.164;5.430;2024-03-02T02:54:44;7.30;1.00
51619;DHT22;38518;53.164;5.430;2024-03-02T02:57:09;7.30;1.00
51619;DHT22;38518;53.164;5.430;2024-03-02T02:59:36;7.20;1.00
51619;DHT22;38518;53.164;5.430;2024-03-02T03:02:02;7.10;3.70
51619;DHT22;38518;53.164;5.430;2024-03-02T03:04:28;7.10;5.90
51619;DHT22;38518;53.164;5.430;2024-03-02T03:06:53;7.10;7.50
51619;DHT22;38518;53.164;5.430;2024-03-02T03:09:19;7.10;9.40
51619;DHT22;38518;53.164;5.430;2024-03-02T03:11:45;7.10;13.60
51619;DHT22;38518;53.164;5.430;2024-03-02T03:14:10;7.10;11.90
51619;DHT22;38518;53.164;5.430;2024-03-02T03:16:36;7.00;7.60
51619;DHT22;38518;53.164;5.430;2024-03-02T03:19:02;7.00;3.40
51619;DHT22;38518;53.164;5.430;2024-03-02T03:21:27;7.00;3.70
51619;DHT22;38518;53.164;5.430;2024-03-02T03:23:53;7.00;4.70
51619;DHT22;38518;53.164;5.430;2024-03-02T03:26:20;5.70;2.70
51619;DHT22;38518;53.164;5.430;2024-03-02T03:28:46;6.90;1.10
51619;DHT22;38518;53.164;5.430;2024-03-02T03:31:12;6.90;1.00
51619;DHT22;38518;53.164;5.430;2024-03-02T03:33:37;6.80;1.00
51619;DHT22;38518;53.164;5.430;2024-03-02T03:36:03;7.20;3.20
51619;DHT22;38518;53.164;5.430;2024-03-02T03:38:29;6.80;5.00
51619;DHT22;38518;53.164;5.430;2024-03-02T03:40:55;6.90;6.70
51619;DHT22;38518;53.164;5.430;2024-03-02T03:43:21;6.70;9.40
51619;DHT22;38518;53.164;5.430;2024-03-02T03:45:47;6.80;12.10
51619;DHT22;38518;53.164;5.430;2024-03-02T03:48:12;6.80;14.90
51619;DHT22;38518;53.164;5.430;2024-03-02T03:50:38;6.70;17.10
51619;DHT22;38518;53.164;5.430;2024-03-02T03:53:04;6.70;18.00
51619;DHT22;38518;53.164;5.430;2024-03-02T03:55:29;6.70;23.20
51619;DHT22;38518;53.164;5.430;2024-03-02T03:57:55;6.60;25.60
51619;DHT22;38518;53.164;5.430;2024-03-02T04:00:21;6.50;31.60
51619;DHT22;38518;53.164;5.430;2024-03-02T04:02:47;6.50;36.10
51619;DHT22;38518;53.164;5.430;2024-03-02T04:05:13;7.40;38.40
51619;DHT22;38518;53.164;5.430;2024-03-02T04:07:38;6.50;40.30
51619;DHT22;38518;53.164;5.430;2024-03-02T04:10:09;6.40;44.00
51619;DHT22;38518;53.164;5.430;2024-03-02T04:12:39;6.40;43.00
51619;DHT22;38518;53.164;5.430;2024-03-02T04:15:05;6.40;45.40
51619;DHT22;38518;53.164;5.430;2024-03-02T04:17:32;6.40;52.90
51619;DHT22;38518;53.164;5.430;2024-03-02T04:19:59;6.30;60.40
51619;DHT22;38518;53.164;5.430;2024-03-02T04:22:26;6.30;62.30
51619;DHT22;38518;53.164;5.430;2024-03-02T04:24:52;6.30;65.10
51619;DHT22;38518;53.164;5.430;2024-03-02T04:27:17;6.90;64.10
51619;DHT22;38518;53.164;5.430;2024-03-02T04:29:43;6.70;66.10
51619;DHT22;38518;53.164;5.430;2024-03-02T04:32:09;6.60;66.60
51619;DHT22;38518;53.164;5.430;2024-03-02T04:34:34;6.10;69.80
51619;DHT22;38518;53.164;5.430;2024-03-02T04:37:00;6.10;72.40
51619;DHT22;38518;53.164;5.430;2024-03-02T04:39:26;6.10;72.40
51619;DHT22;38518;53.164;5.430;2024-03-02T04:41:52;7.20;74.00
51619;DHT22;38518;53.164;5.430;2024-03-02T04:44:17;6.00;75.00
51619;DHT22;38518;53.164;5.430;2024-03-02T04:46:43;6.00;73.50
51619;DHT22;38518;53.164;5.430;2024-03-02T04:49:09;5.90;71.90
51619;DHT22;38518;53.164;5.430;2024-03-02T04:51:35;6.20;73.30
51619;DHT22;38518;53.164;5.430;2024-03-02T04:54:01;5.90;73.10
51619;DHT22;38518;53.164;5.430;2024-03-02T04:56:26;5.90;72.30
51619;DHT22;38518;53.164;5.430;2024-03-02T04:58:58;6.70;77.10
51619;DHT22;38518;53.164;5.430;2024-03-02T05:01:23;5.80;74.40
51619;DHT22;38518;53.164;5.430;2024-03-02T05:03:49;5.80;76.00
51619;DHT22;38518;53.164;5.430;2024-03-02T05:06:15;5.70;78.00
51619;DHT22;38518;53.164;5.430;2024-03-02T05:08:40;5.70;80.70
51619;DHT22;38518;53.164;5.430;2024-03-02T05:11:06;6.20;85.20
51619;DHT22;38518;53.164;5.430;2024-03-02T05:13:50;5.90;86.10
51619;DHT22;38518;53.164;5.430;2024-03-02T05:16:16;5.70;86.30
51619;DHT22;38518;53.164;5.430;2024-03-02T05:18:41;5.60;87.60
51619;DHT22;38518;53.164;5.430;2024-03-02T05:21:07;5.60;87.80
51619;DHT22;38518;53.164;5.430;2024-03-02T05:23:33;5.90;88.10
51619;DHT22;38518;53.164;5.430;2024-03-02T05:25:59;5.50;87.80
51619;DHT22;38518;53.164;5.430;2024-03-02T05:28:24;5.50;91.90
51619;DHT22;38518;53.164;5.430;2024-03-02T05:30:50;5.60;90.00
51619;DHT22;38518;53.164;5.430;2024-03-02T05:33:16;5.80;90.80
51619;DHT22;38518;53.164;5.430;2024-03-02T05:35:43;6.00;91.30
51619;DHT22;38518;53.164;5.430;2024-03-02T05:38:09;5.40;92.40
51619;DHT22;38518;53.164;5.430;2024-03-02T05:40:34;5.60;92.50
51619;DHT22;38518;53.164;5.430;2024-03-02T05:43:00;5.30;94.40
51619;DHT22;38518;53.164;5.430;2024-03-02T05:45:26;5.30;96.10
51619;DHT22;38518;53.164;5.430;2024-03-02T05:47:51;5.40;96.20
51619;DHT22;38518;53.164;5.430;2024-03-02T05:50:18;5.40;96.50
51619;DHT22;38518;53.164;5.430;2024-03-02T05:52:45;5.50;97.50
51619;DHT22;38518;53.164;5.430;2024-03-02T05:55:11;6.30;96.10
51619;DHT22;38518;53.164;5.430;2024-03-02T05:57:36;5.20;95.70
51619;DHT22;38518;53.164;5.430;2024-03-02T06:00:20;5.50;96.80
51619;DHT22;38518;53.164;5.430;2024-03-02T06:02:46;5.20;97.60
51619;DHT22;38518;53.164;5.430;2024-03-02T06:05:12;5.20;97.40
51619;DHT22;38518;53.164;5.430;2024-03-02T06:07:37;5.10;97.80
51619;DHT22;38518;53.164;5.430;2024-03-02T06:10:03;6.10;97.30
51619;DHT22;38518;53.164;5.430;2024-03-02T06:12:31;5.10;95.40
51619;DHT22;38518;53.164;5.430;2024-03-02T06:14:57;5.10;94.40
51619;DHT22;38518;53.164;5.430;2024-03-02T06:17:23;5.10;93.60
51619;DHT22;38518;53.164;5.430;2024-03-02T06:19:49;6.10;93.00
51619;DHT22;38518;53.164;5.430;2024-03-02T06:22:14;6.00;93.60
51619;DHT22;38518;53.164;5.430;2024-03-02T06:24:40;6.10;92.70
51619;DHT22;38518;53.164;5.430;2024-03-02T06:27:06;5.40;92.00
51619;DHT22;38518;53.164;5.430;2024-03-02T06:29:34;5.50;92.10
51619;DHT22;38518;53.164;5.430;2024-03-02T06:32:00;5.00;93.60
51619;DHT22;38518;53.164;5.430;2024-03-02T06:34:26;5.10;92.50
51619;DHT22;38518;53.164;5.430;2024-03-02T06:36:52;5.00;92.50
51619;DHT22;38518;53.164;5.430;2024-03-02T06:39:17;5.20;92.60
51619;DHT22;38518;53.164;5.430;2024-03-02T06:41:43;6.10;93.00
51619;DHT22;38518;53.164;5.430;2024-03-02T06:44:09;5.10;95.90
51619;DHT22;38518;53.164;5.430;2024-03-02T06:46:34;5.80;97.20
51619;DHT22;38518;53.164;5.430;2024-03-02T06:49:00;5.30;99.20
51619;DHT22;38518;53.164;5.430;2024-03-02T06:51:28;5.40;98.60
51619;DHT22;38518;53.164;5.430;2024-03-02T06:53:53;5.60;96.50
51619;DHT22;38518;53.164;5.430;2024-03-02T06:56:21;6.20;92.40
51619;DHT22;38518;53.164;5.430;2024-03-02T06:58:47;5.80;87.30
51619;DHT22;38518;53.164;5.430;2024-03-02T07:01:13;6.10;77.90
51619;DHT22;38518;53.164;5.430;2024-03-02T07:03:38;6.10;63.70
51619;DHT22;38518;53.164;5.430;2024-03-02T07:06:05;5.90;60.00
51619;DHT22;38518;53.164;5.430;2024-03-02T07:08:31;6.00;59.60
51619;DHT22;38518;53.164;5.430;2024-03-02T07:10:56;5.60;55.50
51619;DHT22;38518;53.164;5.430;2024-03-02T07:13:23;7.10;52.60
51619;DHT22;38518;53.164;5.430;2024-03-02T07:15:48;5.80;49.00
51619;DHT22;38518;53.164;5.430;2024-03-02T07:18:32;5.60;45.50
51619;DHT22;38518;53.164;5.430;2024-03-02T07:21:07;6.40;50.90
51619;DHT22;38518;53.164;5.430;2024-03-02T07:23:32;6.50;37.60
51619;DHT22;38518;53.164;5.430;2024-03-02T07:25:59;6.60;29.40
51619;DHT22;38518;53.164;5.430;2024-03-02T07:28:28;6.60;22.30
51619;DHT22;38518;53.164;5.430;2024-03-02T07:30:59;6.60;24.50
51619;DHT22;38518;53.164;5.430;2024-03-02T07:33:25;6.70;20.20
51619;DHT22;38518;53.164;5.430;2024-03-02T07:35:51;6.80;21.60
51619;DHT22;38518;53.164;5.430;2024-03-02T07:38:16;7.10;20.90
51619;DHT22;38518;53.164;5.430;2024-03-02T07:40:42;7.50;25.00
51619;DHT22;38518;53.164;5.430;2024-03-02T07:43:08;7.80;9.30
51619;DHT22;38518;53.164;5.430;2024-03-02T07:45:34;7.80;1.00
51619;DHT22;38518;53.164;5.430;2024-03-02T07:48:02;7.80;1.00
51619;DHT22;38518;53.164;5.430;2024-03-02T07:50:29;7.80;1.00
51619;DHT22;38518;53.164;5.430;2024-03-02T07:52:56;7.80;1.00
51619;DHT22;38518;53.164;5.430;2024-03-02T07:55:21;7.90;1.00
51619;DHT22;38518;53.164;5.430;2024-03-02T07:57:49;8.70;1.00
51619;DHT22;38518;53.164;5.430;2024-03-02T08:00:15;7.90;1.00
51619;DHT22;38518;53.164;5.430;2024-03-02T08:02:41;7.90;1.00
51619;DHT22;38518;53.164;5.430;2024-03-02T08:05:08;7.70;1.00
51619;DHT22;38518;53.164;5.430;2024-03-02T08:07:34;8.10;1.00
51619;DHT22;38518;53.164;5.430;2024-03-02T08:10:00;8.10;1.00
51619;DHT22;38518;53.164;5.430;2024-03-02T08:12:26;8.10;1.00
51619;DHT22;38518;53.164;5.430;2024-03-02T08:14:51;8.20;1.00
51619;DHT22;38518;53.164;5.430;2024-03-02T08:17:17;8.30;1.00
51619;DHT22;38518;53.164;5.430;2024-03-02T08:19:44;8.40;1.00
51619;DHT22;38518;53.164;5.430;2024-03-02T08:22:10;8.40;1.00
51619;DHT22;38518;53.164;5.430;2024-03-02T08:24:36;8.50;1.00
51619;DHT22;38518;53.164;5.430;2024-03-02T08:27:02;8.50;1.00
51619;DHT22;38518;53.164;5.430;2024-03-02T08:29:27;8.70;1.00
51619;DHT22;38518;53.164;5.430;2024-03-02T08:31:54;9.10;1.00
51619;DHT22;38518;53.164;5.430;2024-03-02T08:34:20;9.70;1.00
51619;DHT22;38518;53.164;5.430;2024-03-02T08:36:46;9.90;1.00
51619;DHT22;38518;53.164;5.430;2024-03-02T08:39:12;9.90;1.00
51619;DHT22;38518;53.164;5.430;2024-03-02T08:41:50;9.90;1.00
51619;DHT22;38518;53.164;5.430;2024-03-02T08:44:16;10.00;1.00
51619;DHT22;38518;53.164;5.430;2024-03-02T08:46:45;10.10;1.00
51619;DHT22;38518;53.164;5.430;2024-03-02T08:49:10;10.30;1.00
51619;DHT22;38518;53.164;5.430;2024-03-02T08:51:36;10.40;1.00
51619;DHT22;38518;53.164;5.430;2024-03-02T08:54:02;10.40;1.00
51619;DHT22;38518;53.164;5.430;2024-03-02T08:56:30;10.30;1.00
51619;DHT22;38518;53.164;5.430;2024-03-02T08:58:56;10.70;1.00
51619;DHT22;38518;53.164;5.430;2024-03-02T09:01:22;11.10;1.00
51619;DHT22;38518;53.164;5.430;2024-03-02T09:03:48;11.20;1.00
51619;DHT22;38518;53.164;5.430;2024-03-02T09:06:15;11.30;1.00
51619;DHT22;38518;53.164;5.430;2024-03-02T09:08:45;11.60;1.00
51619;DHT22;38518;53.164;5.430;2024-03-02T09:11:11;11.70;1.00
51619;DHT22;38518;53.164;5.430;2024-03-02T09:13:38;11.90;1.00
51619;DHT22;38518;53.164;5.430;2024-03-02T09:16:04;12.20;1.00
51619;DHT22;38518;53.164;5.430;2024-03-02T09:18:31;12.30;1.00
51619;DHT22;38518;53.164;5.430;2024-03-02T09:20:56;12.30;1.00
51619;DHT22;38518;53.164;5.430;2024-03-02T09:23:22;12.40;1.00
51619;DHT22;38518;53.164;5.430;2024-03-02T09:25:48;12.70;1.00
51619;DHT22;38518;53.164;5.430;2024-03-02T09:28:15;12.70;1.00
51619;DHT22;38518;53.164;5.430;2024-03-02T09:30:41;12.60;1.00
51619;DHT22;38518;53.164;5.430;2024-03-02T09:33:07;12.40;1.00
51619;DHT22;38518;53.164;5.430;2024-03-02T09:35:33;12.10;1.00
51619;DHT22;38518;53.164;5.430;2024-03-02T09:37:58;11.50;1.00
51619;DHT22;38518;53.164;5.430;2024-03-02T09:40:24;11.10;1.00
51619;DHT22;38518;53.164;5.430;2024-03-02T09:42:51;10.80;1.00
51619;DHT22;38518;53.164;5.430;2024-03-02T09:45:27;11.20;1.00
51619;DHT22;38518;53.164;5.430;2024-03-02T09:47:53;10.40;1.00
51619;DHT22;38518;53.164;5.430;2024-03-02T09:50:18;10.30;1.00
51619;DHT22;38518;53.164;5.430;2024-03-02T09:52:48;10.40;1.00
51619;DHT22;38518;53.164;5.430;2024-03-02T09:55:15;10.70;1.00
51619;DHT22;38518;53.164;5.430;2024-03-02T09:57:41;11.00;1.00
51619;DHT22;38518;53.164;5.430;2024-03-02T10:00:10;11.60;1.00
51619;DHT22;38518;53.164;5.430;2024-03-02T10:02:41;12.20;1.00
51619;DHT22;38518;53.164;5.430;2024-03-02T10:05:10;12.30;1.00
51619;DHT22;38518;53.164;5.430;2024-03-02T10:07:37;12.90;1.00
51619;DHT22;38518;53.164;5.430;2024-03-02T10:10:16;12.80;1.00
51619;DHT22;38518;53.164;5.430;2024-03-02T10:12:42;13.20;1.00
51619;DHT22;38518;53.164;5.430;2024-03-02T10:15:08;13.50;1.00
51619;DHT22;38518;53.164;5.430;2024-03-02T10:17:35;13.30;1.00
51619;DHT22;38518;53.164;5.430;2024-03-02T10:20:21;13.40;1.00
51619;DHT22;38518;53.164;5.430;2024-03-02T10:22:48;14.00;1.00
51619;DHT22;38518;53.164;5.430;2024-03-02T10:25:33;14.30;1.00
51619;DHT22;38518;53.164;5.430;2024-03-02T10:28:00;14.50;1.00
51619;DHT22;38518;53.164;5.430;2024-03-02T10:30:29;13.80;1.00
51619;DHT22;38518;53.164;5.430;2024-03-02T10:32:55;14.70;1.00
51619;DHT22;38518;53.164;5.430;2024-03-02T10:35:22;14.80;1.00
51619;DHT22;38518;53.164;5.430;2024-03-02T10:37:49;15.00;1.00
51619;DHT22;38518;53.164;5.430;2024-03-02T10:40:15;14.90;1.00
51619;DHT22;38518;53.164;5.430;2024-03-02T10:42:45;15.00;1.00
51619;DHT22;38518;53.164;5.430;2024-03-02T10:45:12;15.30;1.00
51619;DHT22;38518;53.164;5.430;2024-03-02T10:47:39;15.30;1.00
51619;DHT22;38518;53.164;5.430;2024-03-02T10:50:07;15.30;1.00
51619;DHT22;38518;53.164;5.430;2024-03-02T10:52:43;15.40;1.00
51619;DHT22;38518;53.164;5.430;2024-03-02T10:55:12;15.60;1.00
51619;DHT22;38518;53.164;5.430;2024-03-02T10:57:51;15.50;1.00
51619;DHT22;38518;53.164;5.430;2024-03-02T11:00:19;15.90;1.00
51619;DHT22;38518;53.164;5.430;2024-03-02T11:02:52;15.80;1.00
51619;DHT22;38518;53.164;5.430;2024-03-02T11:08:13;16.40;1.00
51619;DHT22;38518;53.164;5.430;2024-03-02T11:10:53;16.30;1.00
51619;DHT22;38518;53.164;5.430;2024-03-02T11:13:30;16.50;1.00
51619;DHT22;38518;53.164;5.430;2024-03-02T11:16:02;16.50;1.00
51619;DHT22;38518;53.164;5.430;2024-03-02T11:18:29;16.70;1.00
51619;DHT22;38518;53.164;5.430;2024-03-02T11:20:55;16.90;1.00
51619;DHT22;38518;53.164;5.430;2024-03-02T11:23:32;17.10;1.00
51619;DHT22;38518;53.164;5.430;2024-03-02T11:26:20;17.00;1.00
51619;DHT22;38518;53.164;5.430;2024-03-02T11:28:47;17.10;1.00
51619;DHT22;38518;53.164;5.430;2024-03-02T11:31:13;17.40;1.00
51619;DHT22;38518;53.164;5.430;2024-03-02T11:33:39;17.50;1.00
51619;DHT22;38518;53.164;5.430;2024-03-02T11:36:06;17.60;1.00
51619;DHT22;38518;53.164;5.430;2024-03-02T11:38:34;17.90;1.00
51619;DHT22;38518;53.164;5.430;2024-03-02T11:41:08;18.00;1.00
51619;DHT22;38518;53.164;5.430;2024-03-02T11:43:37;17.80;1.00
51619;DHT22;38518;53.164;5.430;2024-03-02T11:46:05;17.80;1.00
51619;DHT22;38518;53.164;5.430;2024-03-02T11:48:36;17.60;1.00
51619;DHT22;38518;53.164;5.430;2024-03-02T11:51:03;17.60;1.00
51619;DHT22;38518;53.164;5.430;2024-03-02T11:53:30;18.10;1.00
51619;DHT22;38518;53.164;5.430;2024-03-02T11:55:58;17.80;1.00
51619;DHT22;38518;53.164;5.430;2024-03-02T11:58:24;18.00;1.00
51619;DHT22;38518;53.164;5.430;2024-03-02T12:00:52;18.10;1.00
51619;DHT22;38518;53.164;5.430;2024-03-02T12:03:21;18.10;1.00
51619;DHT22;38518;53.164;5.430;2024-03-02T12:05:50;17.60;1.00
51619;DHT22;38518;53.164;5.430;2024-03-02T12:08:16;17.60;1.00
51619;DHT22;38518;53.164;5.430;2024-03-02T12:10:42;17.50;1.00
51619;DHT22;38518;53.164;5.430;2024-03-02T12:13:13;17.80;1.00
51619;DHT22;38518;53.164;5.430;2024-03-02T12:15:41;17.90;1.00
51619;DHT22;38518;53.164;5.430;2024-03-02T12:18:07;18.20;1.00
51619;DHT22;38518;53.164;5.430;2024-03-02T12:20:33;18.00;1.00
51619;DHT22;38518;53.164;5.430;2024-03-02T12:23:01;18.30;1.00
51619;DHT22;38518;53.164;5.430;2024-03-02T12:25:28;18.60;1.00
51619;DHT22;38518;53.164;5.430;2024-03-02T12:27:56;18.60;1.00
51619;DHT22;38518;53.164;5.430;2024-03-02T12:30:22;18.70;1.00
51619;DHT22;38518;53.164;5.430;2024-03-02T12:32:49;18.90;1.00
51619;DHT22;38518;53.164;5.430;2024-03-02T12:35:15;18.90;1.00
51619;DHT22;38518;53.164;5.430;2024-03-02T12:37:46;19.00;1.00
51619;DHT22;38518;53.164;5.430;2024-03-02T12:40:13;19.20;1.00
51619;DHT22;38518;53.164;5.430;2024-03-02T12:42:40;19.10;1.00
51619;DHT22;38518;53.164;5.430;2024-03-02T12:45:08;19.00;1.00
51619;DHT22;38518;53.164;5.430;2024-03-02T12:47:34;19.30;1.00
51619;DHT22;38518;53.164;5.430;2024-03-02T12:50:01;19.50;1.00
51619;DHT22;38518;53.164;5.430;2024-03-02T12:52:27;19.60;1.00
51619;DHT22;38518;53.164;5.430;2024-03-02T12:54:52;19.80;1.00
51619;DHT22;38518;53.164;5.430;2024-03-02T12:57:28;20.10;1.00
51619;DHT22;38518;53.164;5.430;2024-03-02T13:00:01;20.10;1.00
51619;DHT22;38518;53.164;5.430;2024-03-02T13:02:35;20.00;1.00
51619;DHT22;38518;53.164;5.430;2024-03-02T13:05:02;19.80;1.00
51619;DHT22;38518;53.164;5.430;2024-03-02T13:07:29;19.60;1.00
51619;DHT22;38518;53.164;5.430;2024-03-02T13:09:55;19.20;1.00
51619;DHT22;38518;53.164;5.430;2024-03-02T13:12:22;19.00;1.00
51619;DHT22;38518;53.164;5.430;2024-03-02T13:14:53;18.90;1.00
51619;DHT22;38518;53.164;5.430;2024-03-02T13:17:19;19.20;1.00
51619;DHT22;38518;53.164;5.430;2024-03-02T13:19:58;19.40;1.00
51619;DHT22;38518;53.164;5.430;2024-03-02T13:22:25;19.50;1.00
51619;DHT22;38518;53.164;5.430;2024-03-02T13:24:52;19.50;1.00
51619;DHT22;38518;53.164;5.430;2024-03-02T13:27:20;19.70;1.00
51619;DHT22;38518;53.164;5.430;2024-03-02T13:29:46;19.60;1.00
51619;DHT22;38518;53.164;5.430;2024-03-02T13:32:15;19.90;1.00
51619;DHT22;38518;53.164;5.430;2024-03-02T13:34:41;20.00;1.00
51619;DHT22;38518;53.164;5.430;2024-03-02T13:37:07;20.30;1.00
51619;DHT22;38518;53.164;5.430;2024-03-02T13:39:33;20.40;1.00
51619;DHT22;38518;53.164;5.430;2024-03-02T13:42:08;20.40;1.00
51619;DHT22;38518;53.164;5.430;2024-03-02T13:44:34;20.30;1.00
51619;DHT22;38518;53.164;5.430;2024-03-02T13:47:01;20.10;1.00
51619;DHT22;38518;53.164;5.430;2024-03-02T13:49:27;19.90;1.00
51619;DHT22;38518;53.164;5.430;2024-03-02T13:52:00;19.90;1.00
51619;DHT22;38518;53.164;5.430;2024-03-02T13:54:29;19.90;1.00
51619;DHT22;38518;53.164;5.430;2024-03-02T13:56:56;20.20;1.00
51619;DHT22;38518;53.164;5.430;2024-03-02T13:59:24;20.00;1.00
51619;DHT22;38518;53.164;5.430;2024-03-02T14:01:50;20.20;1.00
51619;DHT22;38518;53.164;5.430;2024-03-02T14:04:16;20.80;1.00
51619;DHT22;38518;53.164;5.430;2024-03-02T14:06:43;21.00;1.00
51619;DHT22;38518;53.164;5.430;2024-03-02T14:09:09;21.00;1.00
51619;DHT22;38518;53.164;5.430;2024-03-02T14:11:35;21.20;1.00
51619;DHT22;38518;53.164;5.430;2024-03-02T14:14:01;21.30;1.00
51619;DHT22;38518;53.164;5.430;2024-03-02T14:16:28;21.00;1.00
51619;DHT22;38518;53.164;5.430;2024-03-02T14:18:54;21.20;1.00
51619;DHT22;38518;53.164;5.430;2024-03-02T14:21:19;21.80;1.00
51619;DHT22;38518;53.164;5.430;2024-03-02T14:23:45;21.70;1.00
51619;DHT22;38518;53.164;5.430;2024-03-02T14:26:11;21.60;1.00
51619;DHT22;38518;53.164;5.430;2024-03-02T14:28:37;21.20;1.00
51619;DHT22;38518;53.164;5.430;2024-03-02T14:31:03;20.80;1.00
51619;DHT22;38518;53.164;5.430;2024-03-02T14:33:28;20.60;1.00
51619;DHT22;38518;53.164;5.430;2024-03-02T14:35:57;20.60;1.00
51619;DHT22;38518;53.164;5.430;2024-03-02T14:38:23;20.60;1.00
51619;DHT22;38518;53.164;5.430;2024-03-02T14:40:51;20.60;1.00
51619;DHT22;38518;53.164;5.430;2024-03-02T14:43:17;20.60;1.00
51619;DHT22;38518;53.164;5.430;2024-03-02T14:45:43;20.50;1.00
51619;DHT22;38518;53.164;5.430;2024-03-02T14:48:12;19.80;1.00
51619;DHT22;38518;53.164;5.430;2024-03-02T14:50:38;19.60;1.00
51619;DHT22;38518;53.164;5.430;2024-03-02T14:53:04;18.80;1.00
51619;DHT22;38518;53.164;5.430;2024-03-02T14:55:33;18.60;1.00
51619;DHT22;38518;53.164;5.430;2024-03-02T14:58:21;18.70;1.00
51619;DHT22;38518;53.164;5.430;2024-03-02T15:00:48;18.20;1.00
51619;DHT22;38518;53.164;5.430;2024-03-02T15:03:14;17.90;1.00
51619;DHT22;38518;53.164;5.430;2024-03-02T15:05:39;18.00;1.00
51619;DHT22;38518;53.164;5.430;2024-03-02T15:08:06;17.80;1.00
51619;DHT22;38518;53.164;5.430;2024-03-02T15:10:32;17.50;1.00
51619;DHT22;38518;53.164;5.430;2024-03-02T15:12:58;17.00;1.00
51619;DHT22;38518;53.164;5.430;2024-03-02T15:15:24;16.50;1.00
51619;DHT22;38518;53.164;5.430;2024-03-02T15:17:50;16.80;1.00
51619;DHT22;38518;53.164;5.430;2024-03-02T15:20:17;17.40;1.00
51619;DHT22;38518;53.164;5.430;2024-03-02T15:22:43;17.20;1.00
51619;DHT22;38518;53.164;5.430;2024-03-02T15:25:09;17.00;1.00
51619;DHT22;38518;53.164;5.430;2024-03-02T15:27:35;16.80;1.00
51619;DHT22;38518;53.164;5.430;2024-03-02T15:30:01;16.60;1.00
51619;DHT22;38518;53.164;5.430;2024-03-02T15:32:26;16.10;1.00
51619;DHT22;38518;53.164;5.430;2024-03-02T15:34:54;15.70;1.00
51619;DHT22;38518;53.164;5.430;2024-03-02T15:37:23;15.80;1.00
51619;DHT22;38518;53.164;5.430;2024-03-02T15:39:49;16.10;1.00
51619;DHT22;38518;53.164;5.430;2024-03-02T15:42:15;16.40;1.00
51619;DHT22;38518;53.164;5.430;2024-03-02T15:44:41;16.60;1.00
51619;DHT22;38518;53.164;5.430;2024-03-02T15:47:07;16.90;1.00
51619;DHT22;38518;53.164;5.430;2024-03-02T15:49:33;17.30;1.00
51619;DHT22;38518;53.164;5.430;2024-03-02T15:51:59;17.60;1.00
51619;DHT22;38518;53.164;5.430;2024-03-02T15:54:27;17.30;1.00
51619;DHT22;38518;53.164;5.430;2024-03-02T15:56:53;17.00;1.00
51619;DHT22;38518;53.164;5.430;2024-03-02T15:59:19;16.50;1.00